Time;durP1;ratioP1;P1;durP2;ratioP2;P2;SDS_P1;SDS_P2;PMS_P1;PMS_P2;Temp;Humidity;BMP_temperature;BMP_pressure;BME280_temperature;BME280_humidity;BME280_pressure;Samples;Min_cycle;Max_cycle;Signal;HPM_P1;HPM_P2
2021/07/26 00:00:58;;;;;;;9.48;5.63;;;;;;;25.35;41.92;94141.59;4981810;28;20427;-72
2021/07/26 00:03:24;;;;;;;7.80;5.63;;;;;;;25.23;41.37;94120.22;4978309;28;20038;-72
2021/07/26 00:05:59;;;;;;;6.30;5.65;;;;;;;25.32;41.36;94128.78;4982380;28;20404;-73
2021/07/26 00:08:26;;;;;;;8.93;5.15;;;;;;;25.33;41.28;94127.66;4977941;28;20453;-72
2021/07/26 00:11:02;;;;;;;6.15;5.55;;;;;;;25.26;41.22;94124.91;4977468;28;20045;-72
2021/07/26 00:13:28;;;;;;;6.40;5.75;;;;;;;25.14;41.57;94111.63;4977167;28;20042;-72
2021/07/26 00:15:54;;;;;;;6.82;5.32;;;;;;;25.29;41.57;94121.44;4980165;28;20043;-72
2021/07/26 00:18:20;;;;;;;6.22;5.60;;;;;;;25.14;41.94;94117.03;4982400;28;20707;-73
2021/07/26 00:20:45;;;;;;;6.82;5.95;;;;;;;24.90;42.47;94114.88;4977446;28;21462;-72
2021/07/26 00:23:11;;;;;;;6.63;5.68;;;;;;;24.92;42.19;94118.00;4977788;28;20073;-71
2021/07/26 00:25:36;;;;;;;7.50;5.47;;;;;;;24.80;42.33;94118.22;4976472;28;20050;-71
2021/07/26 00:28:02;;;;;;;8.32;5.38;;;;;;;24.75;43.16;94124.72;4979764;28;20039;-71
2021/07/26 00:30:28;;;;;;;9.80;7.35;;;;;;;24.29;43.08;94129.56;4978366;28;20404;-73
2021/07/26 00:32:53;;;;;;;7.90;5.68;;;;;;;24.01;43.31;94135.34;4974306;28;20048;-74
2021/07/26 00:35:18;;;;;;;9.10;6.43;;;;;;;23.98;43.44;94146.13;4971144;28;20029;-74
2021/07/26 00:37:44;;;;;;;7.40;6.60;;;;;;;23.90;43.46;94128.25;4976379;28;20791;-73
2021/07/26 00:40:10;;;;;;;7.50;5.97;;;;;;;23.99;43.73;94150.38;4976500;28;20041;-73
2021/07/26 00:42:38;;;;;;;6.53;5.60;;;;;;;24.03;44.14;94143.09;4975288;28;20093;-74
2021/07/26 00:45:05;;;;;;;5.72;5.00;;;;;;;24.10;44.31;94137.78;4974442;28;20034;-73
2021/07/26 00:47:30;;;;;;;9.15;6.45;;;;;;;24.23;44.14;94143.78;4976994;28;20067;-73
2021/07/26 00:49:56;;;;;;;6.20;5.28;;;;;;;24.24;44.01;94140.69;4979045;28;20048;-72
2021/07/26 00:52:24;;;;;;;7.15;6.45;;;;;;;24.00;43.43;94146.50;4973426;28;20062;-74
2021/07/26 00:54:50;;;;;;;7.32;5.32;;;;;;;24.01;43.64;94139.97;4979255;28;20068;-73
2021/07/26 00:57:15;;;;;;;6.60;5.72;;;;;;;24.00;44.01;94122.22;4975316;28;20370;-73
2021/07/26 00:59:41;;;;;;;7.88;5.85;;;;;;;24.19;43.42;94135.63;4976944;28;20326;-74
2021/07/26 01:02:06;;;;;;;7.22;5.20;;;;;;;24.29;43.18;94136.94;4977680;28;23927;-70
2021/07/26 01:04:32;;;;;;;7.93;5.75;;;;;;;24.42;42.82;94139.03;4975469;28;20822;-73
2021/07/26 01:06:58;;;;;;;5.93;5.32;;;;;;;24.50;42.67;94148.75;4978686;28;20513;-73
2021/07/26 01:09:23;;;;;;;8.45;5.88;;;;;;;24.52;42.48;94124.09;4978256;28;20705;-73
2021/07/26 01:11:49;;;;;;;8.30;6.10;;;;;;;24.63;42.20;94132.31;4975748;28;20029;-73
2021/07/26 01:14:15;;;;;;;6.22;5.50;;;;;;;24.52;42.30;94115.97;4974393;28;20516;-73
2021/07/26 01:16:42;;;;;;;10.45;5.95;;;;;;;24.68;42.28;94123.88;4975092;28;20608;-74
2021/07/26 01:19:07;;;;;;;6.72;5.82;;;;;;;24.76;42.34;94120.88;4975845;28;20460;-72
2021/07/26 01:21:33;;;;;;;8.55;5.80;;;;;;;24.79;42.11;94119.34;4977396;28;20068;-74
2021/07/26 01:24:00;;;;;;;6.50;5.90;;;;;;;24.81;43.11;94117.06;4977598;28;20064;-72
2021/07/26 01:26:26;;;;;;;8.00;5.85;;;;;;;24.71;42.10;94133.94;4975308;28;20030;-71
2021/07/26 01:29:06;;;;;;;8.10;5.78;;;;;;;24.65;42.41;94135.41;4978755;28;20428;-71
2021/07/26 01:31:31;;;;;;;8.40;6.00;;;;;;;24.55;42.49;94123.34;4968253;28;20047;-72
2021/07/26 01:33:57;;;;;;;7.90;6.03;;;;;;;24.56;42.41;94141.13;4975979;28;20304;-72
2021/07/26 01:36:24;;;;;;;8.88;6.20;;;;;;;24.42;42.79;94143.66;4979195;28;20280;-73
2021/07/26 01:38:53;;;;;;;7.07;6.20;;;;;;;24.18;44.16;94128.69;4976291;28;21355;-71
2021/07/26 01:41:26;;;;;;;6.70;5.88;;;;;;;24.14;44.50;94127.84;4975115;28;20208;-72
2021/07/26 01:44:04;;;;;;;9.95;5.85;;;;;;;24.26;43.81;94146.53;4973667;28;20080;-73
2021/07/26 01:46:44;;;;;;;6.55;5.90;;;;;;;24.22;44.04;94145.72;4973261;28;20153;-74
2021/07/26 01:49:19;;;;;;;5.90;5.30;;;;;;;24.23;44.17;94151.88;4976148;28;20077;-72
2021/07/26 01:51:44;;;;;;;8.60;5.85;;;;;;;24.24;44.27;94159.59;4978302;28;20064;-73
2021/07/26 01:54:11;;;;;;;6.38;5.43;;;;;;;24.10;44.05;94148.59;4978780;28;20605;-73
2021/07/26 01:56:37;;;;;;;6.18;5.32;;;;;;;24.01;44.16;94151.56;4972943;28;20072;-73
2021/07/26 01:59:03;;;;;;;6.82;5.60;;;;;;;24.12;44.53;94167.91;4974039;28;20054;-75
2021/07/26 02:01:29;;;;;;;7.30;5.38;;;;;;;24.19;44.18;94165.31;4977389;28;20031;-72
2021/07/26 02:03:56;;;;;;;6.20;5.60;;;;;;;24.29;44.50;94162.00;4978175;28;20038;-73
2021/07/26 02:06:21;;;;;;;6.68;5.57;;;;;;;24.15;44.09;94140.94;4976002;28;20262;-74
2021/07/26 02:08:46;;;;;;;6.35;5.50;;;;;;;24.36;43.50;94156.69;4972598;28;23918;-73
2021/07/26 02:11:12;;;;;;;8.13;5.57;;;;;;;24.43;43.86;94172.22;4972383;28;20481;-73
2021/07/26 02:13:37;;;;;;;6.55;4.80;;;;;;;24.40;43.88;94179.13;4978710;28;20089;-72
2021/07/26 02:16:03;;;;;;;9.45;6.43;;;;;;;24.38;43.77;94186.03;4974412;28;20046;-73
2021/07/26 02:18:29;;;;;;;8.73;4.97;;;;;;;24.46;43.50;94193.88;4974491;28;20060;-71
2021/07/26 02:20:54;;;;;;;7.65;6.00;;;;;;;24.31;43.66;94167.03;4975021;28;20117;-72
2021/07/26 02:23:19;;;;;;;7.57;5.40;;;;;;;24.12;43.04;94154.41;4971221;28;20022;-71
2021/07/26 02:25:45;;;;;;;6.60;5.00;;;;;;;24.41;42.96;94194.19;4976633;28;20511;-72
2021/07/26 02:28:10;;;;;;;6.70;5.38;;;;;;;24.40;43.35;94195.31;4978332;28;20061;-71
2021/07/26 02:30:36;;;;;;;6.93;5.20;;;;;;;24.32;43.49;94199.09;4976015;28;20047;-71
2021/07/26 02:33:01;;;;;;;6.50;5.43;;;;;;;24.39;43.31;94193.75;4974880;28;20285;-72
2021/07/26 02:35:28;;;;;;;6.82;5.72;;;;;;;24.36;43.23;94197.22;4977048;28;20153;-71
2021/07/26 02:37:54;;;;;;;6.22;5.43;;;;;;;24.29;43.19;94180.13;4975606;28;20057;-71
2021/07/26 02:40:20;;;;;;;6.32;4.93;;;;;;;24.35;43.53;94186.75;4975048;28;20058;-72
2021/07/26 02:42:46;;;;;;;9.00;6.00;;;;;;;24.24;43.45;94186.63;4976642;28;20507;-71
2021/07/26 02:45:11;;;;;;;9.65;4.82;;;;;;;24.33;43.48;94205.28;4971203;28;20045;-72
2021/07/26 02:47:37;;;;;;;6.65;4.95;;;;;;;24.21;43.47;94192.75;4973388;28;20049;-71
2021/07/26 02:50:03;;;;;;;7.25;5.40;;;;;;;24.15;43.42;94202.28;4976046;28;20049;-70
2021/07/26 02:52:28;;;;;;;8.10;5.03;;;;;;;23.77;43.86;94188.97;4978709;28;20049;-70
2021/07/26 02:54:53;;;;;;;7.88;4.93;;;;;;;23.63;44.23;94192.22;4975634;28;20628;-72
2021/07/26 02:57:19;;;;;;;7.47;5.25;;;;;;;23.79;44.43;94197.50;4974880;28;20690;-72
2021/07/26 02:59:44;;;;;;;7.13;5.70;;;;;;;23.65;44.72;94198.81;4974640;28;20038;-72
2021/07/26 03:02:09;;;;;;;5.93;5.32;;;;;;;23.72;44.52;94208.94;4977445;28;20046;-71
2021/07/26 03:04:35;;;;;;;7.40;5.75;;;;;;;23.68;44.56;94208.13;4974425;28;20294;-71
2021/07/26 03:07:00;;;;;;;6.13;5.30;;;;;;;23.80;44.41;94201.75;4972325;28;20124;-71
2021/07/26 03:09:26;;;;;;;8.55;5.60;;;;;;;23.84;44.19;94210.69;4977133;28;20041;-72
2021/07/26 03:11:51;;;;;;;5.82;5.28;;;;;;;23.79;44.46;94189.41;4976359;28;20576;-72
2021/07/26 03:14:16;;;;;;;7.63;5.80;;;;;;;23.76;44.27;94193.59;4972943;28;20054;-72
2021/07/26 03:16:42;;;;;;;7.90;5.60;;;;;;;23.75;44.82;94211.69;4975522;28;20555;-72
2021/07/26 03:19:08;;;;;;;6.40;5.15;;;;;;;23.49;45.26;94175.81;4976689;28;20065;-71
2021/07/26 03:21:34;;;;;;;6.05;5.35;;;;;;;23.79;44.75;94213.69;4975154;28;20082;-72
2021/07/26 03:23:59;;;;;;;6.93;6.10;;;;;;;23.77;44.86;94218.66;4977090;28;20310;-72
2021/07/26 03:26:25;;;;;;;6.97;6.00;;;;;;;23.81;44.81;94219.50;4975278;28;20022;-72
2021/07/26 03:28:50;;;;;;;10.07;5.80;;;;;;;23.82;44.76;94224.53;4976247;28;20033;-72
2021/07/26 03:31:15;;;;;;;11.80;6.38;;;;;;;;;;4980074;28;20128;-72
2021/07/26 03:33:44;;;;;;;9.70;6.47;;;;;;;23.73;44.87;94216.69;4982155;28;20125;-72
2021/07/26 03:36:10;;;;;;;8.38;5.65;;;;;;;23.53;44.65;94173.94;4980926;28;20697;-72
2021/07/26 03:38:36;;;;;;;7.72;5.70;;;;;;;23.68;44.75;94198.09;4978794;28;20037;-72
2021/07/26 03:41:01;;;;;;;8.93;5.60;;;;;;;23.67;44.71;94212.72;4978501;28;20444;-71
2021/07/26 03:43:27;;;;;;;7.13;5.88;;;;;;;23.70;45.03;94224.72;4973937;28;20107;-73
2021/07/26 03:45:52;;;;;;;6.95;5.70;;;;;;;23.80;44.85;94229.50;4980548;28;20395;-73
2021/07/26 03:48:18;;;;;;;7.57;5.65;;;;;;;23.82;45.03;94232.63;4974112;28;20030;-73
2021/07/26 03:50:43;;;;;;;8.82;6.53;;;;;;;23.85;44.93;94236.53;4978803;28;20132;-71
2021/07/26 03:53:08;;;;;;;11.18;6.63;;;;;;;23.88;45.42;94231.19;4976074;28;20045;-72
2021/07/26 03:55:35;;;;;;;6.72;6.03;;;;;;;23.86;45.15;94238.06;4979598;28;20038;-72
2021/07/26 03:58:02;;;;;;;9.90;7.20;;;;;;;23.90;45.48;94242.38;4980330;28;20038;-72
2021/07/26 04:00:30;;;;;;;7.75;6.05;;;;;;;23.94;45.38;94239.75;4979735;28;20034;-72
2021/07/26 04:05:55;;;;;;;6.57;5.32;;;;;;;24.02;45.90;94241.44;4979531;28;20041;-72
2021/07/26 04:08:25;;;;;;;9.65;6.03;;;;;;;24.07;46.11;94241.13;4975112;28;20054;-72
2021/07/26 04:10:58;;;;;;;15.23;6.00;;;;;;;24.09;45.89;94233.44;4979158;28;20038;-71
2021/07/26 04:13:24;;;;;;;6.90;5.97;;;;;;;24.03;46.51;94219.47;4977782;28;20046;-72
2021/07/26 04:15:50;;;;;;;10.23;6.25;;;;;;;24.10;47.08;94234.97;4975140;28;20493;-73
2021/07/26 04:18:16;;;;;;;10.75;6.65;;;;;;;24.18;46.90;94225.91;4975334;28;20057;-72
2021/07/26 04:20:41;;;;;;;7.75;6.32;;;;;;;24.25;46.30;94228.69;4977890;28;20034;-71
2021/07/26 04:23:06;;;;;;;8.07;5.50;;;;;;;24.39;46.90;94231.59;4979919;28;20463;-71
2021/07/26 04:25:32;;;;;;;8.25;6.38;;;;;;;24.46;45.39;94234.41;4975448;28;20686;-72
2021/07/26 04:27:58;;;;;;;7.88;6.13;;;;;;;24.55;44.99;94221.41;4978434;28;20048;-71
2021/07/26 04:30:23;;;;;;;9.55;6.30;;;;;;;24.67;44.08;94233.13;4977762;28;20039;-73
2021/07/26 04:32:48;;;;;;;10.02;5.60;;;;;;;24.79;43.27;94232.88;4979942;28;20042;-72
2021/07/26 04:35:15;;;;;;;13.20;6.05;;;;;;;24.83;43.11;94229.06;4975065;28;20416;-72
2021/07/26 04:37:43;;;;;;;6.63;4.65;;;;;;;24.95;42.53;94236.22;4977467;28;20049;-71
2021/07/26 04:40:10;;;;;;;8.60;5.50;;;;;;;25.08;42.67;94239.44;4976545;28;20442;-71
2021/07/26 04:42:36;;;;;;;8.60;5.25;;;;;;;25.13;42.56;94248.00;4980747;28;20046;-74
2021/07/26 04:45:03;;;;;;;10.60;5.25;;;;;;;25.20;42.60;94252.72;4979699;28;20030;-72
2021/07/26 04:47:28;;;;;;;5.93;5.25;;;;;;;25.22;42.62;94251.19;4978078;28;20029;-72
2021/07/26 04:49:54;;;;;;;7.28;5.28;;;;;;;25.22;42.17;94245.00;4976486;28;20428;-72
2021/07/26 04:52:19;;;;;;;9.15;5.47;;;;;;;25.23;42.19;94252.75;4975584;28;20042;-72
2021/07/26 04:54:44;;;;;;;6.63;5.47;;;;;;;25.26;42.19;94251.25;4973611;28;20046;-72
2021/07/26 04:57:10;;;;;;;8.75;5.80;;;;;;;25.31;41.87;94264.44;4976171;28;20438;-71
2021/07/26 04:59:35;;;;;;;9.38;5.40;;;;;;;25.25;41.79;94250.47;4976211;28;20473;-72
2021/07/26 05:02:00;;;;;;;7.32;5.85;;;;;;;25.34;42.04;94255.59;4980312;28;20055;-72
2021/07/26 05:04:26;;;;;;;6.55;5.90;;;;;;;25.33;42.06;94262.91;4982172;28;20261;-72
2021/07/26 05:06:58;;;;;;;7.90;5.43;;;;;;;25.35;42.33;94260.63;4966978;28;20507;-72
2021/07/26 05:09:24;;;;;;;16.15;6.90;;;;;;;25.37;42.51;94262.94;4986011;28;20116;-72
2021/07/26 05:11:50;;;;;;;10.65;6.57;;;;;;;25.55;41.49;94263.19;4988747;28;20061;-71
2021/07/26 05:14:15;;;;;;;8.10;7.07;;;;;;;25.43;41.98;94262.25;4987017;28;20117;-72
2021/07/26 05:16:40;;;;;;;9.50;6.47;;;;;;;25.35;42.00;94255.22;4985498;28;20105;-71
2021/07/26 05:19:06;;;;;;;10.10;5.78;;;;;;;25.46;42.21;94258.78;4984343;28;20416;-72
2021/07/26 05:21:31;;;;;;;9.43;6.65;;;;;;;25.42;41.77;94244.47;4986826;28;20042;-72
2021/07/26 05:23:57;;;;;;;7.03;5.57;;;;;;;25.54;41.94;94261.59;4978817;28;20060;-72
2021/07/26 05:26:22;;;;;;;10.48;5.80;;;;;;;25.63;41.13;94259.38;4983949;28;20053;-72
2021/07/26 05:28:48;;;;;;;10.32;5.32;;;;;;;25.71;41.30;94261.00;4985618;28;20121;-72
2021/07/26 05:31:13;;;;;;;7.03;5.85;;;;;;;25.62;41.53;94268.66;4988755;28;20185;-72
2021/07/26 05:33:42;;;;;;;11.85;5.93;;;;;;;25.65;41.90;94265.22;4979234;28;20034;-70
2021/07/26 05:36:07;;;;;;;8.65;5.95;;;;;;;25.83;41.80;94274.28;4985875;28;20019;-72
2021/07/26 05:38:33;;;;;;;8.90;5.85;;;;;;;25.83;41.72;94274.28;4985691;28;20570;-70
2021/07/26 05:41:00;;;;;;;6.82;3.97;;;;;;;25.98;41.15;94275.19;4988523;28;20045;-73
2021/07/26 05:43:30;;;;;;;17.40;4.05;;;;;;;25.84;41.05;94279.31;4988101;28;20133;-71
2021/07/26 05:45:55;;;;;;;11.65;4.45;;;;;;;25.87;41.72;94269.66;4992270;28;20519;-72
2021/07/26 05:48:21;;;;;;;6.68;3.90;;;;;;;26.13;40.57;94276.84;4986900;28;20054;-72
2021/07/26 05:50:46;;;;;;;12.45;3.85;;;;;;;26.24;40.83;94283.94;4982463;28;20476;-73
2021/07/26 05:53:11;;;;;;;6.13;4.13;;;;;;;26.25;40.28;94292.84;4986279;28;20128;-72
2021/07/26 05:55:40;;;;;;;10.98;4.28;;;;;;;26.19;40.41;94270.69;4985320;28;20049;-72
2021/07/26 05:58:05;;;;;;;10.10;4.32;;;;;;;26.18;41.29;94285.41;4988335;28;20571;-73
2021/07/26 06:00:45;;;;;;;4.85;4.35;;;;;;;25.95;41.21;94284.81;4980405;28;20042;-72
2021/07/26 06:03:11;;;;;;;6.53;4.10;;;;;;;25.94;40.76;94285.22;4984046;28;20481;-72
2021/07/26 06:05:36;;;;;;;7.75;3.85;;;;;;;26.18;41.30;94282.72;4987159;28;20485;-72
2021/07/26 06:08:02;;;;;;;11.73;3.88;;;;;;;26.30;40.56;94285.13;4990615;28;20500;-73
2021/07/26 06:10:27;;;;;;;9.15;3.92;;;;;;;26.48;40.75;94279.09;4984085;28;20504;-73
2021/07/26 06:12:53;;;;;;;7.18;4.35;;;;;;;26.18;41.43;94279.22;4984056;28;20049;-73
2021/07/26 06:15:19;;;;;;;8.00;4.28;;;;;;;26.44;40.07;94281.00;4986067;28;20042;-72
2021/07/26 06:17:45;;;;;;;7.50;4.55;;;;;;;26.64;40.68;94285.75;4989473;28;20072;-72
2021/07/26 06:20:11;;;;;;;13.82;6.32;;;;;;;26.68;40.56;94269.53;4982279;28;20085;-73
2021/07/26 06:22:37;;;;;;;10.32;5.13;;;;;;;26.84;40.83;94283.53;4986586;28;20078;-73
2021/07/26 06:25:09;;;;;;;10.15;4.63;;;;;;;27.00;39.84;94284.06;4986526;28;20084;-72
2021/07/26 06:27:34;;;;;;;9.52;5.00;;;;;;;26.89;39.79;94268.88;4983707;28;20061;-72
2021/07/26 06:29:59;;;;;;;10.80;5.00;;;;;;;27.00;39.66;94275.91;4982518;28;20489;-73
2021/07/26 06:32:25;;;;;;;8.45;4.75;;;;;;;26.82;39.60;94263.41;4982632;28;20064;-72
2021/07/26 06:34:50;;;;;;;9.20;5.95;;;;;;;26.98;40.04;94277.44;4984443;28;20101;-72
2021/07/26 06:37:16;;;;;;;9.60;5.18;;;;;;;26.88;40.26;94280.91;4983461;28;20040;-72
2021/07/26 06:39:41;;;;;;;10.40;5.53;;;;;;;26.92;39.98;94257.28;4983084;28;20061;-72
2021/07/26 06:42:06;;;;;;;12.90;5.18;;;;;;;27.17;41.35;94282.59;4984657;28;20099;-72
2021/07/26 06:44:32;;;;;;;11.75;6.13;;;;;;;27.29;39.73;94276.03;4983558;28;20477;-73
2021/07/26 06:46:57;;;;;;;14.07;6.60;;;;;;;27.28;39.77;94258.97;4987292;28;20048;-72
2021/07/26 06:49:23;;;;;;;8.27;5.00;;;;;;;27.26;39.58;94268.66;4984283;28;20065;-72
2021/07/26 06:51:48;;;;;;;13.27;5.78;;;;;;;27.14;39.86;94275.19;4983897;28;20531;-71
2021/07/26 06:54:14;;;;;;;16.05;6.15;;;;;;;27.15;40.23;94277.53;4984278;28;20041;-72
2021/07/26 06:56:39;;;;;;;11.27;5.22;;;;;;;27.00;40.00;94277.84;4983610;28;20030;-72
2021/07/26 06:59:05;;;;;;;8.05;5.75;;;;;;;27.08;39.31;94266.63;4983183;28;20293;-72
2021/07/26 07:01:30;;;;;;;12.55;6.05;;;;;;;27.15;40.74;94250.41;4985224;28;20052;-71
2021/07/26 07:03:55;;;;;;;11.10;5.53;;;;;;;27.35;40.33;94264.44;4987090;28;20070;-72
2021/07/26 07:06:23;;;;;;;10.95;4.70;;;;;;;27.31;41.01;94265.56;4987541;28;20057;-76
2021/07/26 07:08:49;;;;;;;13.27;5.65;;;;;;;27.52;39.39;94252.84;4988058;28;20710;-75
2021/07/26 07:11:16;;;;;;;15.95;6.25;;;;;;;27.50;38.91;94255.19;4984951;28;20084;-76
2021/07/26 07:13:52;;;;;;;12.18;6.10;;;;;;;27.63;38.12;94260.25;4986803;28;20038;-76
2021/07/26 07:16:23;;;;;;;12.85;6.15;;;;;;;27.68;38.17;94271.50;4985606;28;20039;-76
2021/07/26 07:18:53;;;;;;;13.55;5.78;;;;;;;27.66;37.43;94265.69;4985139;28;20034;-76
2021/07/26 07:21:27;;;;;;;9.38;6.07;;;;;;;27.54;37.83;94252.47;4993033;28;20036;-76
2021/07/26 07:23:54;;;;;;;13.00;5.95;;;;;;;27.54;38.45;94247.06;4994530;28;20051;-76
2021/07/26 07:26:21;;;;;;;12.43;5.35;;;;;;;27.53;38.35;94262.56;4986895;28;20085;-76
2021/07/26 07:28:47;;;;;;;8.75;6.28;;;;;;;27.65;38.84;94256.00;4991010;28;20305;-76
2021/07/26 07:31:15;;;;;;;10.15;5.55;;;;;;;27.80;38.57;94262.22;4990682;28;20046;-76
2021/07/26 07:33:41;;;;;;;10.77;5.72;;;;;;;27.84;38.13;94263.00;4989802;28;20046;-76
2021/07/26 07:36:06;;;;;;;13.52;6.13;;;;;;;27.91;38.15;94255.63;4983011;28;20045;-76
2021/07/26 07:38:33;;;;;;;7.15;5.28;;;;;;;27.78;38.43;94261.81;4987495;28;20096;-75
2021/07/26 07:41:00;;;;;;;10.30;5.35;;;;;;;27.81;38.19;94263.75;4987066;28;20034;-76
2021/07/26 07:43:26;;;;;;;11.90;5.45;;;;;;;27.79;37.88;94238.94;4984390;28;20038;-76
2021/07/26 07:45:54;;;;;;;12.07;5.47;;;;;;;27.81;37.82;94247.47;5001836;28;20146;-76
2021/07/26 07:48:19;;;;;;;15.48;6.90;;;;;;;28.07;37.52;94254.47;4988456;28;20038;-75
2021/07/26 07:50:45;;;;;;;8.15;5.55;;;;;;;28.04;37.63;94234.31;4986589;28;20033;-76
2021/07/26 07:53:11;;;;;;;12.73;6.22;;;;;;;28.27;36.91;94263.81;4981351;28;20030;-76
2021/07/26 07:55:36;;;;;;;9.57;5.80;;;;;;;28.26;37.48;94267.69;4988408;28;20038;-76
2021/07/26 07:58:02;;;;;;;9.85;5.50;;;;;;;28.28;37.86;94271.59;4979129;28;20516;-76
2021/07/26 08:00:28;;;;;;;8.20;5.25;;;;;;;28.36;37.98;94259.53;4987573;28;20038;-76
2021/07/26 08:02:53;;;;;;;11.98;5.05;;;;;;;28.63;37.97;94262.63;4986227;28;20046;-76
2021/07/26 08:05:19;;;;;;;12.48;4.93;;;;;;;28.67;37.34;94255.22;4986129;28;20129;-77
2021/07/26 08:07:45;;;;;;;8.98;5.65;;;;;;;28.98;36.77;94261.00;4986025;28;20385;-76
2021/07/26 08:10:12;;;;;;;8.10;5.28;;;;;;;29.15;36.29;94265.59;4987581;28;20117;-75
2021/07/26 08:12:37;;;;;;;11.65;5.07;;;;;;;28.93;36.30;94261.41;4984708;28;20096;-75
2021/07/26 08:15:03;;;;;;;10.13;5.80;;;;;;;29.10;35.43;94252.41;4985461;28;20312;-75
2021/07/26 08:17:30;;;;;;;13.77;5.65;;;;;;;28.82;36.05;94248.63;4987105;28;20432;-76
2021/07/26 08:19:55;;;;;;;10.50;4.95;;;;;;;28.72;36.48;94237.75;4988916;28;20093;-76
2021/07/26 08:22:20;;;;;;;9.00;5.68;;;;;;;28.91;35.95;94248.19;4984790;28;20157;-76
2021/07/26 08:24:46;;;;;;;9.52;4.72;;;;;;;28.88;36.50;94226.44;4987680;28;20042;-76
2021/07/26 08:27:11;;;;;;;9.32;5.20;;;;;;;28.76;36.81;94230.38;4987019;28;20036;-75
2021/07/26 08:29:37;;;;;;;7.85;5.47;;;;;;;28.62;37.20;94224.94;4991860;28;20026;-76
2021/07/26 08:32:02;;;;;;;6.68;4.63;;;;;;;28.86;37.82;94232.28;4985257;28;20038;-76
2021/07/26 08:34:28;;;;;;;15.15;5.43;;;;;;;28.87;36.10;94224.91;4985845;28;20528;-76
2021/07/26 08:36:55;;;;;;;10.13;5.32;;;;;;;28.67;36.69;94244.34;4987863;28;20050;-76
2021/07/26 08:39:21;;;;;;;8.70;4.93;;;;;;;28.78;36.53;94239.66;4986581;28;20061;-76
2021/07/26 08:41:46;;;;;;;8.07;5.35;;;;;;;28.93;38.05;94231.50;4986377;28;20148;-76
2021/07/26 08:44:11;;;;;;;11.45;5.15;;;;;;;29.17;37.06;94227.88;4985462;28;20076;-76
2021/07/26 08:46:42;;;;;;;9.57;5.38;;;;;;;29.18;35.26;94218.53;4983879;28;20546;-75
2021/07/26 08:49:07;;;;;;;8.23;5.25;;;;;;;29.40;35.85;94236.34;4988323;28;20062;-76
2021/07/26 08:51:33;;;;;;;11.57;5.22;;;;;;;29.43;35.57;94232.03;4986345;28;20585;-76
2021/07/26 08:54:00;;;;;;;9.15;4.93;;;;;;;29.49;36.09;94247.56;4987048;28;20040;-75
2021/07/26 08:56:26;;;;;;;11.45;5.05;;;;;;;29.19;35.38;94247.31;4987605;28;20034;-76
2021/07/26 08:58:51;;;;;;;11.10;5.00;;;;;;;29.41;35.93;94248.03;4983976;28;20862;-75
2021/07/26 09:01:17;;;;;;;8.02;4.93;;;;;;;29.41;35.70;94239.84;4985535;28;20049;-76
2021/07/26 09:03:44;;;;;;;10.38;5.10;;;;;;;29.56;35.90;94239.38;4983660;28;20076;-76
2021/07/26 09:06:09;;;;;;;10.07;5.38;;;;;;;29.57;36.53;94208.22;4984799;28;20129;-77
2021/07/26 09:08:37;;;;;;;10.20;5.45;;;;;;;29.75;34.52;94229.13;4983871;28;20119;-76
2021/07/26 09:11:04;;;;;;;23.50;5.82;;;;;;;29.76;34.95;94219.78;4986982;28;20038;-77
2021/07/26 09:13:34;;;;;;;9.45;5.13;;;;;;;30.05;34.81;94232.06;4986524;28;20066;-76
2021/07/26 09:16:17;;;;;;;10.57;5.28;;;;;;;29.53;34.77;94234.72;4985295;28;20308;-76
2021/07/26 09:18:44;;;;;;;10.48;6.35;;;;;;;29.55;35.11;94231.59;4986228;28;20082;-77
2021/07/26 09:21:09;;;;;;;8.15;5.18;;;;;;;29.54;34.82;94191.91;4982868;28;20041;-77
2021/07/26 09:23:38;;;;;;;9.15;5.50;;;;;;;29.95;35.49;94217.34;4987625;28;20022;-76
2021/07/26 09:26:27;;;;;;;11.93;5.47;;;;;;;29.98;33.76;94215.75;4982314;28;20074;-77
2021/07/26 09:28:53;;;;;;;9.20;6.18;;;;;;;29.91;34.76;94213.09;4982557;28;20605;-76
2021/07/26 09:31:18;;;;;;;7.43;6.00;;;;;;;30.14;34.28;94207.84;4984283;28;20127;-78
2021/07/26 09:33:43;;;;;;;13.25;5.70;;;;;;;30.15;34.53;94203.94;4975666;28;20038;-77
2021/07/26 09:36:23;;;;;;;17.73;5.45;;;;;;;30.18;34.28;94229.59;4981165;28;20034;-76
2021/07/26 09:38:48;;;;;;;8.93;5.28;;;;;;;30.45;34.40;94227.78;4986495;28;20052;-77
2021/07/26 09:41:17;;;;;;;12.90;6.10;;;;;;;30.42;34.31;94218.47;4982221;28;20911;-76
2021/07/26 09:43:42;;;;;;;12.32;4.95;;;;;;;30.30;33.74;94199.13;4983507;28;20338;-78
2021/07/26 09:46:08;;;;;;;10.30;5.57;;;;;;;30.58;33.24;94225.38;4980394;28;20412;-77
2021/07/26 09:48:34;;;;;;;7.75;5.15;;;;;;;30.70;33.44;94233.81;4982325;28;21028;-77
2021/07/26 09:51:03;;;;;;;10.55;5.55;;;;;;;30.77;33.78;94239.22;4982887;28;20030;-76
2021/07/26 09:53:30;;;;;;;13.60;5.72;;;;;;;30.75;33.06;94230.63;4983804;28;20029;-77
2021/07/26 09:56:13;;;;;;;8.30;5.25;;;;;;;30.86;33.51;94235.97;4985167;28;20051;-77
2021/07/26 09:58:40;;;;;;;11.02;5.65;;;;;;;30.72;33.31;94226.00;4985776;28;20504;-75
2021/07/26 10:01:08;;;;;;;15.63;6.32;;;;;;;30.89;33.34;94233.22;4984500;28;20190;-76
2021/07/26 10:03:34;;;;;;;11.43;5.90;;;;;;;30.94;33.40;94226.53;4984273;28;20049;-77
2021/07/26 10:06:00;;;;;;;10.45;6.60;;;;;;;30.91;33.30;94219.94;4984948;28;20485;-77
2021/07/26 10:08:28;;;;;;;9.40;5.95;;;;;;;31.21;34.92;94230.16;4986208;28;20034;-77
2021/07/26 10:10:55;;;;;;;8.07;6.18;;;;;;;31.15;33.29;94229.03;4985927;28;20038;-76
2021/07/26 10:13:21;;;;;;;8.07;6.07;;;;;;;31.24;35.55;94226.59;4981494;28;20122;-76
2021/07/26 10:15:49;;;;;;;15.38;7.05;;;;;;;31.48;35.63;94237.59;4988555;28;20038;-76
2021/07/26 10:18:14;;;;;;;13.43;6.22;;;;;;;31.53;33.04;94224.25;4985665;28;20042;-77
2021/07/26 10:21:01;;;;;;;10.77;7.10;;;;;;;31.19;32.78;94221.56;4986886;28;20023;-76
2021/07/26 10:23:49;;;;;;;14.55;7.38;;;;;;;31.58;33.27;94231.22;4985439;28;20536;-76
2021/07/26 10:26:18;;;;;;;9.77;6.40;;;;;;;31.61;31.76;94224.97;4986670;28;20054;-76
2021/07/26 10:29:00;;;;;;;16.42;9.73;;;;;;;31.73;32.59;94221.66;4983016;28;20049;-76
2021/07/26 10:31:28;;;;;;;12.48;7.00;;;;;;;31.64;32.39;94224.13;4987503;28;20046;-76
2021/07/26 10:34:08;;;;;;;7.95;5.93;;;;;;;31.37;32.28;94213.91;4985675;28;20659;-76
2021/07/26 10:36:42;;;;;;;9.63;6.25;;;;;;;31.63;32.34;94212.44;4987189;28;20068;-77
2021/07/26 10:39:18;;;;;;;8.45;6.32;;;;;;;31.77;33.36;94206.75;4988336;28;20084;-77
2021/07/26 10:41:44;;;;;;;9.10;5.70;;;;;;;31.75;32.36;94208.38;4988566;28;20172;-76
2021/07/26 10:44:29;;;;;;;10.68;6.70;;;;;;;31.73;32.70;94213.47;4987753;28;20045;-76
2021/07/26 10:49:35;;;;;;;12.02;6.63;;;;;;;31.86;31.24;94208.97;4990208;28;20049;-76
2021/07/26 10:52:01;;;;;;;9.73;6.45;;;;;;;32.04;31.75;94209.47;4988047;28;20145;-76
2021/07/26 10:54:34;;;;;;;14.48;6.38;;;;;;;32.08;31.52;94210.19;4987780;28;20525;-77
2021/07/26 10:56:59;;;;;;;9.32;6.30;;;;;;;31.98;31.32;94204.88;4989167;28;20041;-76
2021/07/26 10:59:25;;;;;;;12.43;7.00;;;;;;;32.07;31.73;94192.22;4989569;28;20026;-77
2021/07/26 11:01:57;;;;;;;9.88;6.38;;;;;;;32.33;31.70;94209.78;4986624;28;20872;-76
2021/07/26 11:04:49;;;;;;;10.48;6.30;;;;;;;32.24;30.26;94204.88;4989309;28;20592;-77
2021/07/26 11:07:26;;;;;;;10.00;6.57;;;;;;;32.18;31.30;94197.53;4991322;28;20050;-77
2021/07/26 11:09:52;;;;;;;10.60;6.88;;;;;;;32.21;30.93;94185.75;4986095;28;20042;-77
2021/07/26 11:12:53;;;;;;;10.93;6.90;;;;;;;32.40;30.52;94206.91;4990481;28;20040;-77
2021/07/26 11:15:19;;;;;;;7.85;5.93;;;;;;;32.55;30.60;94204.69;5004314;28;20049;-76
2021/07/26 11:18:36;;;;;;;15.52;8.60;;;;;;;32.63;31.11;94190.53;4989896;28;20712;-77
2021/07/26 11:21:16;;;;;;;10.10;7.82;;;;;;;32.73;30.15;94193.47;4989040;28;20608;-77
2021/07/26 11:23:47;;;;;;;10.77;8.75;;;;;;;32.49;29.44;94187.25;4986216;28;20519;-77
2021/07/26 11:26:26;;;;;;;14.52;8.98;;;;;;;32.49;31.07;94195.44;5002318;28;20555;-78
2021/07/26 11:28:54;;;;;;;13.40;7.95;;;;;;;32.58;30.14;94192.94;4988810;28;20065;-77
2021/07/26 11:31:38;;;;;;;12.43;8.52;;;;;;;32.84;30.41;94189.31;4985204;28;20104;-77
2021/07/26 11:34:09;;;;;;;9.07;8.13;;;;;;;33.03;29.81;94185.84;4986402;28;20531;-76
2021/07/26 11:36:34;;;;;;;10.77;8.27;;;;;;;32.94;29.73;94176.63;4988372;28;20449;-77
2021/07/26 11:39:08;;;;;;;10.85;9.68;;;;;;;32.95;29.61;94187.16;4982699;28;20029;-76